Imbuia, Brazil
Current Conditions -  °F | °C
As of 5:00 PM on Thursday 23 Oct 2014 (Local Time) from SBFL Reporting Station
Few Clouds Few Clouds  
Wind Chill: 79°   Ceiling: Unl
Heat Index: 80°   Visibility: 6mi
Dew Point: 61°   Wind: 14mph
Humidity: 54%   Direction: 10°N
Pressure: 29.97"   Gusts: NA
Location:  27.49°S, 49.42°W
Report Text: SBFL 231900Z 01012KT 9999 FEW040 26/16 Q1015
Loading
Personal Weather Stations






























Interactive Weather Map
Tropical Storm Tracking
New forecast layout! Learn more

10-Day Weather Forecast

Advertisements
Track Severe Weather on mobile